Suncadia, Washington
Current Conditions -  °F | °C
As of 9:53 PM on Tuesday 21 Oct 2014 (Local Time) from KELN Reporting Station
Clear Clear  
Wind Chill: 44°   Ceiling: Unl
Heat Index: 47°   Visibility: 10mi
Dew Point: 40°   Wind: 7mph
Humidity: 77%   Direction: 50°NE
Pressure: 29.9"   Gusts: NA
Location:  47.3367°N, 121.023°W
Report Text: KELN 220453Z AUTO 05006KT 10SM CLR 08/04 A2990 RMK AO2 SLP130 T00830044
Loading
Personal Weather Stations






























Interactive Weather Map
Tropical Storm Tracking
New forecast layout! Learn more

10-Day Weather Forecast

Advertisements
Track Severe Weather on mobile